Time;durP1;ratioP1;P1;durP2;ratioP2;P2;SDS_P1;SDS_P2;PMS_P1;PMS_P2;Temp;Humidity;BMP_temperature;BMP_pressure;BME280_temperature;BME280_humidity;BME280_pressure;Samples;Min_cycle;Max_cycle;Signal;HPM_P1;HPM_P2
2022/01/02 00:01:37;;;;;;;0.60;0.40;;;;;;;0.28;72.75;99213.91;100918;1313;75542;-23
2022/01/02 00:04:05;;;;;;;0.40;0.30;;;;;;;0.24;73.34;99215.27;100582;1313;76118;-23
2022/01/02 00:06:33;;;;;;;2.30;0.60;;;;;;;0.25;72.79;99217.44;100660;1316;72797;-24
2022/01/02 00:09:03;;;;;;;1.00;0.70;;;;;;;0.56;71.31;99218.17;101158;1313;61216;-24
2022/01/02 00:11:30;;;;;;;0.90;0.70;;;;;;;0.66;70.14;99224.98;100919;1313;62133;-24
2022/01/02 00:14:08;;;;;;;0.50;0.40;;;;;;;0.50;70.11;99220.95;101112;1313;75469;-24
2022/01/02 00:16:36;;;;;;;0.90;0.50;;;;;;;0.42;70.38;99226.88;100681;1316;75764;-24
2022/01/02 00:19:16;;;;;;;0.40;0.40;;;;;;;0.20;70.50;99229.23;100758;1316;74452;-24
2022/01/02 00:21:46;;;;;;;0.80;0.40;;;;;;;0.24;71.34;99238.49;100582;1319;61086;-24
2022/01/02 00:24:18;;;;;;;0.40;0.40;;;;;;;0.17;71.65;99242.84;101009;1313;61871;-24
2022/01/02 00:26:48;;;;;;;1.40;0.60;;;;;;;0.41;71.47;99242.13;100723;1313;74583;-24
2022/01/02 00:29:15;;;;;;;0.50;0.30;;;;;;;1.00;69.91;99244.71;100713;1315;74565;-24
2022/01/02 00:31:43;;;;;;;0.40;0.30;;;;;;;1.03;69.63;99242.21;101151;1313;74563;-24
2022/01/02 00:34:10;;;;;;;0.80;0.60;;;;;;;0.82;70.12;99247.10;101114;1316;61074;-24
2022/01/02 00:36:37;;;;;;;0.40;0.40;;;;;;;0.63;71.28;99245.61;101038;1313;61073;-24
2022/01/02 00:39:06;;;;;;;0.30;0.30;;;;;;;0.38;71.95;99251.48;101841;1310;75521;-24
2022/01/02 00:41:35;;;;;;;0.20;0.20;;;;;;;0.26;72.69;99254.45;101583;1307;75008;-24
2022/01/02 00:44:34;;;;;;;0.60;0.50;;;;;;;0.18;73.22;99255.41;101586;1308;72296;-24
2022/01/02 00:47:23;;;;;;;0.50;0.40;;;;;;;0.03;74.04;99257.45;101818;1306;60994;-24
2022/01/02 00:50:02;;;;;;;0.50;0.50;;;;;;;0.48;72.21;99266.14;101594;1307;62189;-24
2022/01/02 00:52:39;;;;;;;1.80;0.50;;;;;;;0.66;72.07;99274.88;101757;1306;75544;-24
2022/01/02 00:55:15;;;;;;;0.60;0.40;;;;;;;0.54;71.80;99278.21;101488;1310;76327;-24
2022/01/02 00:57:42;;;;;;;0.50;0.40;;;;;;;0.44;71.50;99282.84;101346;1313;74628;-23
2022/01/02 01:00:16;;;;;;;0.70;0.50;;;;;;;0.20;72.61;99287.64;101484;1310;61064;-23
2022/01/02 01:02:54;;;;;;;1.10;0.70;;;;;;;-0.00;73.11;99289.01;101593;1307;61181;-24
2022/01/02 01:05:30;;;;;;;0.70;0.40;;;;;;;-0.07;73.66;99290.94;101529;1310;73354;-23
2022/01/02 01:07:59;;;;;;;0.30;0.30;;;;;;;-0.12;74.36;99295.19;101605;1307;74574;-24
2022/01/02 01:10:29;;;;;;;0.80;0.50;;;;;;;0.33;72.73;99300.33;101401;1310;74638;-24
2022/01/02 01:12:59;;;;;;;0.80;0.60;;;;;;;0.42;71.50;99299.68;101485;1307;62200;-24
2022/01/02 01:15:28;;;;;;;0.90;0.60;;;;;;;0.10;71.57;99306.41;101181;1308;61961;-23
2022/01/02 01:17:57;;;;;;;0.60;0.40;;;;;;;0.12;71.30;99301.55;101236;1310;72956;-24
2022/01/02 01:20:30;;;;;;;1.10;0.60;;;;;;;-0.09;72.28;99303.63;101413;1310;75888;-23
2022/01/02 01:22:57;;;;;;;;;;;;;;;-0.30;72.16;99300.89;101617;1307;74324;-24
2022/01/02 01:25:24;;;;;;;0.40;0.30;;;;;;;-0.39;72.63;99298.13;101738;1307;61243;-23
2022/01/02 01:27:52;;;;;;;0.40;0.40;;;;;;;-0.50;72.38;99302.40;101828;1307;61080;-23
2022/01/02 01:30:21;;;;;;;0.50;0.50;;;;;;;-0.41;72.01;99306.02;101532;1307;75786;-24
2022/01/02 01:32:53;;;;;;;0.60;0.60;;;;;;;-0.14;70.86;99306.17;101498;1307;76065;-23
2022/01/02 01:35:21;;;;;;;0.90;0.50;;;;;;;-0.10;70.28;99304.02;101117;1307;73351;-23
2022/01/02 01:37:49;;;;;;;0.80;0.50;;;;;;;-0.10;70.47;99302.81;101256;1310;61162;-26
2022/01/02 01:40:16;;;;;;;0.50;0.40;;;;;;;-0.25;70.75;99298.71;101647;1307;61147;-24
2022/01/02 01:42:55;;;;;;;1.00;0.50;;;;;;;-0.36;71.51;99299.73;101365;1310;74454;-24
2022/01/02 01:48:04;;;;;;;0.40;0.40;;;;;;;-0.50;72.84;99302.75;101540;1306;74436;-24
2022/01/02 01:50:37;;;;;;;0.60;0.40;;;;;;;-0.46;72.69;99301.41;101424;1310;62947;-24
2022/01/02 01:53:04;;;;;;;0.20;0.20;;;;;;;-0.10;71.63;99303.65;101509;1307;61088;-24
2022/01/02 01:55:34;;;;;;;0.90;0.50;;;;;;;0.12;70.26;99301.73;101457;1307;75493;-24
2022/01/02 01:58:01;;;;;;;0.30;0.30;;;;;;;0.03;70.68;99306.83;101525;1306;75085;-24
2022/01/02 02:00:29;;;;;;;2.90;0.70;;;;;;;-0.20;71.00;99298.87;101604;1310;74331;-23
2022/01/02 02:02:57;;;;;;;0.30;0.30;;;;;;;-0.37;71.18;99301.45;101544;1307;61324;-23
2022/01/02 02:05:29;;;;;;;2.60;0.40;;;;;;;-0.48;70.58;99304.54;101511;1310;61033;-24
2022/01/02 02:07:56;;;;;;;0.30;0.30;;;;;;;-0.63;71.57;99314.91;101535;1306;74709;-24
2022/01/02 02:10:28;;;;;;;2.00;0.40;;;;;;;-0.80;72.09;99321.05;101454;1307;75920;-24
2022/01/02 02:12:59;;;;;;;0.60;0.40;;;;;;;-0.82;71.66;99314.28;100817;1307;74479;-24
2022/01/02 02:15:28;;;;;;;0.20;0.20;;;;;;;-0.76;71.55;99314.63;101093;1307;61371;-23
2022/01/02 02:17:56;;;;;;;0.50;0.50;;;;;;;-0.34;70.06;99313.31;101090;1310;61242;-23
2022/01/02 02:20:31;;;;;;;0.40;0.40;;;;;;;-0.29;69.84;99314.52;101705;1308;74734;-24
2022/01/02 02:23:00;;;;;;;0.40;0.40;;;;;;;-0.33;71.49;99317.21;101108;1309;76200;-24
2022/01/02 02:25:29;;;;;;;0.40;0.40;;;;;;;-0.54;71.86;99319.23;101220;1310;74352;-23
2022/01/02 02:27:59;;;;;;;0.70;0.40;;;;;;;-0.76;72.75;99321.95;101223;1307;61129;-23
2022/01/02 02:30:28;;;;;;;0.60;0.50;;;;;;;-0.92;73.67;99328.23;101323;1309;61770;-24
2022/01/02 02:32:55;;;;;;;0.40;0.40;;;;;;;-0.99;73.56;99331.85;101290;1310;75589;-24
2022/01/02 02:35:25;;;;;;;0.30;0.30;;;;;;;-1.09;73.67;99338.92;101531;1307;75940;-24
2022/01/02 02:37:53;;;;;;;0.50;0.30;;;;;;;-0.60;72.37;99343.47;101448;1310;74461;-24
2022/01/02 02:40:23;;;;;;;0.30;0.30;;;;;;;-0.47;71.80;99342.91;101751;1307;61128;-24
2022/01/02 02:51:05;;;;;;;0.40;0.40;;;;;;;-1.07;73.27;99368.52;101641;1307;74498;-23
2022/01/02 02:53:34;;;;;;;0.60;0.50;;;;;;;-1.20;73.54;99378.43;101351;1307;61525;-24
2022/01/02 02:56:03;;;;;;;0.50;0.40;;;;;;;-1.21;73.12;99375.58;101444;1305;61068;-23
2022/01/02 03:00:59;;;;;;;1.10;0.50;;;;;;;-0.74;71.25;99377.80;101618;1307;74875;-23
2022/01/02 03:03:26;;;;;;;0.40;0.40;;;;;;;-0.84;71.25;99377.45;101666;1307;73424;-23
2022/01/02 03:05:54;;;;;;;1.30;0.50;;;;;;;-1.07;71.85;99368.38;101766;1307;61016;-24
2022/01/02 03:08:21;;;;;;;0.50;0.50;;;;;;;-1.23;72.41;99379.91;101663;1307;61074;-23
2022/01/02 03:11:23;;;;;;;0.90;0.50;;;;;;;-1.29;72.80;99378.86;101687;1309;600003;-24
2022/01/02 03:13:54;;;;;;;0.40;0.40;;;;;;;-1.47;73.26;99370.84;104366;1284;61147;-22
2022/01/02 03:16:23;;;;;;;0.50;0.50;;;;;;;-1.26;72.69;99368.38;104679;1277;61128;-23
2022/01/02 03:18:54;;;;;;;0.40;0.40;;;;;;;-1.03;71.63;99360.42;104737;1277;74249;-22
2022/01/02 03:21:23;;;;;;;0.50;0.50;;;;;;;-0.98;71.19;99362.16;104717;1278;76156;-21
2022/01/02 03:23:52;;;;;;;0.90;0.50;;;;;;;-1.08;72.03;99369.42;104458;1277;175981;-26
2022/01/02 03:26:20;;;;;;;0.70;0.50;;;;;;;-1.09;72.18;99374.73;104473;1280;61127;-27
2022/01/02 03:28:49;;;;;;;0.50;0.50;;;;;;;-1.27;72.13;99375.73;104741;1277;61045;-24
2022/01/02 03:31:17;;;;;;;0.80;0.60;;;;;;;-1.55;72.85;99370.88;104908;1274;71082;-24
2022/01/02 03:33:46;;;;;;;0.70;0.60;;;;;;;-1.73;72.67;99375.40;104881;1274;76106;-25
2022/01/02 03:36:15;;;;;;;0.90;0.60;;;;;;;-1.88;72.68;99377.34;104893;1274;73376;-26
2022/01/02 03:38:44;;;;;;;0.90;0.60;;;;;;;-1.52;71.19;99392.74;104933;1274;61747;-26
2022/01/02 03:41:12;;;;;;;0.40;0.40;;;;;;;-1.48;70.46;99400.48;104928;1274;61792;-25
2022/01/02 03:43:41;;;;;;;1.20;0.80;;;;;;;-1.62;70.70;99407.99;104925;1274;72986;-26
2022/01/02 03:46:09;;;;;;;1.90;1.00;;;;;;;-1.69;71.17;99413.27;104728;1274;75609;-23
2022/01/02 03:48:37;;;;;;;0.80;0.70;;;;;;;-1.90;72.16;99420.10;104898;1274;73244;-23
2022/01/02 03:51:07;;;;;;;0.80;0.70;;;;;;;-2.03;72.50;99424.84;104914;1274;61219;-23
2022/01/02 03:53:36;;;;;;;0.90;0.80;;;;;;;-2.09;73.26;99433.15;104770;1274;60994;-22
2022/01/02 03:56:04;;;;;;;0.80;0.60;;;;;;;-1.96;73.18;99446.10;104770;1274;74927;-23
2022/01/02 03:58:33;;;;;;;0.40;0.40;;;;;;;-1.65;71.63;99447.23;104874;1274;76054;-24
2022/01/02 04:01:02;;;;;;;0.80;0.50;;;;;;;-1.36;71.39;99451.11;104608;1274;73270;-22
2022/01/02 04:03:31;;;;;;;0.90;0.60;;;;;;;-1.46;71.28;99440.10;104833;1274;61043;-24
2022/01/02 04:06:00;;;;;;;0.90;0.60;;;;;;;-1.62;71.28;99432.35;104765;1274;61080;-25
2022/01/02 04:08:30;;;;;;;0.90;0.70;;;;;;;-1.82;71.91;99432.69;104578;1277;74903;-25
2022/01/02 04:10:58;;;;;;;1.20;0.90;;;;;;;-1.89;72.59;99436.56;104852;1278;75019;-23
2022/01/02 04:13:27;;;;;;;1.10;0.80;;;;;;;-1.88;73.08;99438.93;104704;1277;72325;-23
2022/01/02 04:15:59;;;;;;;0.30;0.30;;;;;;;-1.86;73.24;99435.66;104826;1277;61015;-22
2022/01/02 04:18:28;;;;;;;0.30;0.30;;;;;;;-1.20;71.80;99435.86;104928;1277;61039;-22
2022/01/02 04:20:57;;;;;;;0.70;0.60;;;;;;;-0.80;70.61;99430.16;104861;1277;75153;-22
2022/01/02 04:23:26;;;;;;;2.00;0.60;;;;;;;-0.96;70.53;99426.34;104888;1278;75831;-23
2022/01/02 04:25:54;;;;;;;0.40;0.40;;;;;;;-1.21;72.00;99421.06;104695;1277;74429;-22
2022/01/02 04:28:24;;;;;;;0.90;0.60;;;;;;;-1.32;72.73;99422.05;104849;1275;60955;-23
2022/01/02 04:30:53;;;;;;;0.70;0.70;;;;;;;-1.42;73.08;99429.12;104767;1277;61758;-23
2022/01/02 04:33:21;;;;;;;2.10;1.10;;;;;;;-1.54;73.75;99434.35;104897;1277;74733;-23
2022/01/02 04:35:50;;;;;;;0.80;0.60;;;;;;;-1.60;73.65;99429.23;104716;1277;75697;-23
2022/01/02 04:38:19;;;;;;;1.70;0.70;;;;;;;-1.61;73.59;99426.19;104909;1276;73428;-23
2022/01/02 04:40:48;;;;;;;1.40;0.70;;;;;;;-1.12;71.93;99437.53;104883;1276;61108;-23
2022/01/02 04:43:18;;;;;;;1.20;0.90;;;;;;;-1.12;71.33;99434.45;104867;1277;61178;-23
2022/01/02 04:48:27;;;;;;;0.70;0.60;;;;;;;-1.38;71.43;99438.20;101801;1310;600282;-23
2022/01/02 04:50:56;;;;;;;0.20;0.20;;;;;;;-1.53;71.79;99439.29;104332;1284;61166;-24
2022/01/02 04:53:24;;;;;;;0.40;0.40;;;;;;;-1.68;72.36;99432.66;104346;1284;61465;-23
2022/01/02 04:55:54;;;;;;;2.00;1.20;;;;;;;-1.78;72.94;99432.08;104459;1284;72942;-23
2022/01/02 04:58:23;;;;;;;1.10;0.80;;;;;;;-1.92;73.26;99436.30;104451;1284;75813;-23
2022/01/02 05:00:52;;;;;;;1.20;0.80;;;;;;;-1.81;72.82;99440.83;104438;1284;74205;-24
2022/01/02 05:03:22;;;;;;;0.60;0.60;;;;;;;-1.31;71.14;99445.52;104361;1281;61085;-24
2022/01/02 05:05:51;;;;;;;0.50;0.50;;;;;;;-1.28;70.63;99452.42;104494;1281;61095;-24
2022/01/02 05:08:20;;;;;;;0.70;0.50;;;;;;;-1.35;70.49;99458.58;104355;1284;73330;-24
2022/01/02 05:10:49;;;;;;;0.80;0.60;;;;;;;-1.49;70.81;99463.52;104504;1284;73992;-23
2022/01/02 05:13:17;;;;;;;0.80;0.70;;;;;;;-1.78;71.60;99463.91;104451;1284;74466;-24
2022/01/02 05:15:47;;;;;;;1.20;0.70;;;;;;;-1.88;71.86;99466.52;104442;1284;61157;-22
2022/01/02 05:18:17;;;;;;;1.10;0.60;;;;;;;-1.96;72.86;99466.52;104495;1284;62025;-23
2022/01/02 05:20:47;;;;;;;0.60;0.60;;;;;;;-2.10;72.64;99453.58;104920;1274;74510;-22
2022/01/02 05:23:16;;;;;;;0.50;0.50;;;;;;;-1.79;72.12;99462.04;104897;1274;73679;-23
2022/01/02 05:25:45;;;;;;;0.90;0.80;;;;;;;-1.46;70.73;99463.80;104751;1274;74472;-23
2022/01/02 05:28:13;;;;;;;1.00;0.80;;;;;;;-1.54;70.62;99450.04;105095;1274;61116;-23
2022/01/02 05:30:41;;;;;;;0.70;0.60;;;;;;;-1.58;70.63;99449.95;105126;1271;61248;-23
2022/01/02 05:33:10;;;;;;;0.90;0.70;;;;;;;-1.85;71.18;99442.27;105050;1271;74475;-23
2022/01/02 05:35:39;;;;;;;1.10;0.60;;;;;;;-1.91;71.85;99446.65;105071;1271;76159;-23
2022/01/02 05:38:08;;;;;;;0.90;0.60;;;;;;;-2.01;72.03;99449.45;105022;1274;73730;-23
2022/01/02 05:40:37;;;;;;;0.60;0.60;;;;;;;-2.06;72.41;99448.04;104908;1271;61058;-22
2022/01/02 05:43:06;;;;;;;2.70;0.90;;;;;;;-2.16;72.94;99443.15;104934;1271;61282;-23
2022/01/02 05:45:35;;;;;;;0.70;0.60;;;;;;;-1.70;71.86;99448.55;105015;1271;74668;-23
2022/01/02 05:48:05;;;;;;;1.70;0.90;;;;;;;-1.37;69.73;99451.48;105039;1274;74680;-23
2022/01/02 05:50:34;;;;;;;2.90;1.10;;;;;;;-1.42;69.61;99452.13;105134;1271;74468;-23
2022/01/02 05:53:03;;;;;;;1.70;1.00;;;;;;;-1.43;69.68;99461.16;104958;1271;61277;-23
2022/01/02 05:55:32;;;;;;;2.00;1.30;;;;;;;-1.69;70.89;99464.02;105123;1272;61368;-23
2022/01/02 05:58:00;;;;;;;1.00;0.90;;;;;;;-1.87;71.73;99463.27;105011;1274;74888;-23
2022/01/02 06:00:30;;;;;;;1.30;1.00;;;;;;;-1.94;71.91;99464.09;105002;1271;73835;-23
2022/01/02 06:03:00;;;;;;;2.60;1.40;;;;;;;-2.08;72.17;99477.69;105160;1274;73391;-23
2022/01/02 06:05:29;;;;;;;1.20;0.80;;;;;;;-2.11;72.37;99483.37;105128;1271;61025;-23
2022/01/02 06:08:02;;;;;;;2.10;0.70;;;;;;;-2.15;72.70;99475.98;104830;1274;61146;-23
2022/01/02 06:10:32;;;;;;;0.60;0.50;;;;;;;-1.66;70.95;99468.52;104856;1274;75546;-23
2022/01/02 06:13:01;;;;;;;1.00;0.60;;;;;;;-1.28;69.20;99466.57;105073;1272;74127;-22
2022/01/02 06:15:29;;;;;;;1.00;0.90;;;;;;;-1.32;68.59;99455.93;105101;1274;73232;-24
2022/01/02 06:17:59;;;;;;;1.00;0.70;;;;;;;-1.53;69.19;99457.17;105161;1273;61022;-25
2022/01/02 06:20:27;;;;;;;3.30;1.10;;;;;;;-1.49;69.35;99467.95;104807;1274;61212;-23
2022/01/02 06:22:56;;;;;;;1.10;0.80;;;;;;;-1.78;70.11;99471.73;105180;1274;73991;-23
2022/01/02 06:25:26;;;;;;;0.80;0.60;;;;;;;-1.98;70.74;99482.23;105062;1274;76035;-23
2022/01/02 06:27:55;;;;;;;0.80;0.60;;;;;;;-1.98;71.15;99487.51;105111;1274;74784;-23
2022/01/02 06:30:24;;;;;;;1.30;0.80;;;;;;;-2.16;71.55;99487.22;104862;1274;61290;-23
2022/01/02 06:32:56;;;;;;;1.50;0.90;;;;;;;-2.29;72.17;99484.95;104736;1274;61009;-23
2022/01/02 06:35:28;;;;;;;0.70;0.50;;;;;;;-2.39;71.69;99486.17;105038;1274;74641;-22
2022/01/02 06:37:56;;;;;;;1.90;1.20;;;;;;;-2.14;71.50;99482.59;104783;1274;74043;-22
2022/01/02 06:40:25;;;;;;;1.50;1.20;;;;;;;-1.80;69.81;99483.85;105109;1274;74542;-22
2022/01/02 06:42:54;;;;;;;1.10;0.80;;;;;;;-1.72;69.50;99488.77;105159;1274;61257;-23
2022/01/02 06:45:22;;;;;;;1.80;1.20;;;;;;;-1.79;69.48;99485.54;104785;1274;61778;-22
2022/01/02 06:47:51;;;;;;;1.10;0.70;;;;;;;-2.00;70.30;99487.21;105044;1274;73862;-22
2022/01/02 06:50:19;;;;;;;0.80;0.60;;;;;;;-2.11;70.56;99494.09;105084;1274;76016;-22
2022/01/02 06:52:48;;;;;;;0.60;0.60;;;;;;;-2.30;71.23;99494.34;105097;1274;73176;-22
2022/01/02 06:55:16;;;;;;;2.10;0.90;;;;;;;-2.35;71.95;99498.36;105077;1274;61150;-23
2022/01/02 06:57:44;;;;;;;4.40;1.30;;;;;;;-2.40;72.15;99497.42;105133;1274;61038;-22
2022/01/02 07:00:13;;;;;;;3.20;1.50;;;;;;;-2.45;71.97;99501.96;105130;1274;73714;-23
2022/01/02 07:02:41;;;;;;;2.30;1.40;;;;;;;-2.40;71.77;99497.27;105015;1274;75945;-22
2022/01/02 07:05:11;;;;;;;1.60;1.20;;;;;;;-1.87;70.32;99490.80;105159;1274;74735;-23
2022/01/02 07:07:42;;;;;;;4.40;1.30;;;;;;;-1.41;69.07;99485.65;105123;1273;61012;-23
2022/01/02 07:10:11;;;;;;;4.40;1.50;;;;;;;-1.40;68.34;99486.45;104747;1274;61762;-22
2022/01/02 07:12:40;;;;;;;2.90;1.60;;;;;;;-1.56;68.61;99490.27;104934;1274;74529;-23
2022/01/02 07:15:09;;;;;;;2.80;1.20;;;;;;;-1.55;69.65;99491.94;105051;1274;74086;-22
2022/01/02 07:17:38;;;;;;;1.70;1.10;;;;;;;-1.79;69.48;99488.09;105054;1274;74494;-23
2022/01/02 07:20:08;;;;;;;1.20;1.00;;;;;;;-1.90;69.57;99484.95;105073;1274;61236;-22
2022/01/02 07:22:42;;;;;;;2.10;1.30;;;;;;;-1.96;69.82;99487.61;104752;1274;61482;-23
2022/01/02 07:25:11;;;;;;;2.60;1.20;;;;;;;-2.00;70.79;99488.05;105020;1274;73845;-23
2022/01/02 07:27:42;;;;;;;4.30;2.10;;;;;;;-1.99;71.60;99483.77;105132;1274;76401;-21
2022/01/02 07:30:12;;;;;;;6.10;2.80;;;;;;;-1.97;72.06;99475.74;105072;1274;74300;-23
2022/01/02 07:32:45;;;;;;;;;;;;;;;-1.32;70.09;99472.11;104789;1274;61090;-24
2022/01/02 07:35:13;;;;;;;1.70;0.90;;;;;;;-0.94;67.61;99475.55;105009;1274;61067;-24
2022/01/02 07:37:42;;;;;;;0.90;0.60;;;;;;;-1.08;66.45;99471.48;105133;1274;73021;-24
2022/01/02 07:40:11;;;;;;;0.60;0.60;;;;;;;-1.17;67.63;99476.34;105042;1272;74539;-24
2022/01/02 07:42:39;;;;;;;0.80;0.70;;;;;;;-1.43;67.41;99471.88;105083;1271;74569;-24
2022/01/02 07:45:14;;;;;;;0.90;0.60;;;;;;;-1.53;68.26;99472.30;105079;1273;62232;-24
2022/01/02 07:47:42;;;;;;;1.30;0.60;;;;;;;-1.63;68.57;99472.04;105153;1271;61041;-24
2022/01/02 07:50:10;;;;;;;1.00;0.90;;;;;;;-1.78;68.91;99477.50;105000;1274;73818;-22
2022/01/02 07:52:39;;;;;;;0.70;0.60;;;;;;;-1.74;69.50;99468.73;105145;1274;75740;-23
2022/01/02 07:55:09;;;;;;;0.80;0.80;;;;;;;-1.75;69.38;99463.65;104785;1274;73416;-23
2022/01/02 07:57:37;;;;;;;0.90;0.80;;;;;;;-1.71;68.65;99463.72;104759;1271;61087;-24
2022/01/02 08:00:06;;;;;;;1.00;0.90;;;;;;;-1.81;69.25;99469.92;104728;1271;61025;-23
2022/01/02 08:02:41;;;;;;;1.80;1.00;;;;;;;-1.76;69.88;99467.77;105041;1271;73587;-23
2022/01/02 08:05:10;;;;;;;1.50;0.90;;;;;;;-1.60;69.33;99474.69;104959;1271;75066;-23
2022/01/02 08:07:39;;;;;;;0.90;0.70;;;;;;;-1.53;68.95;99478.28;104900;1274;71651;-23
2022/01/02 08:10:09;;;;;;;1.50;1.10;;;;;;;-1.59;69.26;99478.08;104737;1274;61835;-23
2022/01/02 08:12:37;;;;;;;1.10;1.00;;;;;;;-1.71;69.74;99473.61;104623;1274;61156;-23
2022/01/02 08:15:09;;;;;;;0.90;0.70;;;;;;;-1.80;70.15;99477.39;104787;1274;73465;-22
2022/01/02 08:17:37;;;;;;;1.10;0.60;;;;;;;-1.74;70.04;99472.31;105142;1271;75236;-23
2022/01/02 08:20:06;;;;;;;1.70;1.00;;;;;;;-1.69;69.65;99468.43;104716;1274;73345;-23
2022/01/02 08:22:35;;;;;;;0.80;0.60;;;;;;;-1.69;70.29;99475.08;104668;1274;61168;-23
2022/01/02 08:25:05;;;;;;;1.10;1.00;;;;;;;-1.75;69.46;99481.86;104803;1274;61051;-22
2022/01/02 08:27:35;;;;;;;1.60;1.10;;;;;;;-1.73;70.38;99487.77;104739;1274;73780;-24
2022/01/02 08:30:05;;;;;;;1.20;0.90;;;;;;;-1.74;69.62;99478.27;104773;1274;75955;-22
2022/01/02 08:32:33;;;;;;;1.40;0.70;;;;;;;-1.73;69.02;99470.74;104706;1273;73349;-24
2022/01/02 08:35:14;;;;;;;1.20;0.80;;;;;;;-1.51;68.00;99469.71;104735;1274;61160;-23
2022/01/02 08:37:43;;;;;;;3.50;1.80;;;;;;;-1.24;67.48;99461.02;104805;1274;61003;-25
2022/01/02 08:40:11;;;;;;;1.20;0.90;;;;;;;-1.14;66.88;99453.09;104775;1274;74912;-24
2022/01/02 08:42:40;;;;;;;1.90;1.20;;;;;;;-1.04;66.61;99451.13;104940;1274;74046;-22
2022/01/02 08:45:08;;;;;;;1.90;1.10;;;;;;;-0.83;65.68;99442.02;105039;1274;74405;-22
2022/01/02 08:47:37;;;;;;;1.40;1.00;;;;;;;-0.48;65.07;99442.05;105133;1274;61249;-24
2022/01/02 08:50:06;;;;;;;1.30;1.00;;;;;;;-0.38;64.13;99442.24;105161;1274;62433;-25
2022/01/02 08:52:35;;;;;;;0.60;0.60;;;;;;;-0.37;64.35;99436.75;105155;1273;74946;-22
2022/01/02 08:55:04;;;;;;;1.50;1.10;;;;;;;-0.33;64.54;99435.63;105111;1274;74016;-22
2022/01/02 08:57:34;;;;;;;2.00;0.90;;;;;;;-0.18;63.83;99437.21;104759;1274;72884;-22
2022/01/02 09:00:04;;;;;;;1.60;0.90;;;;;;;-0.14;63.67;99441.33;105001;1274;61171;-22
2022/01/02 09:02:32;;;;;;;1.70;1.20;;;;;;;-0.21;63.75;99443.98;104800;1274;62612;-22
2022/01/02 09:05:00;;;;;;;1.70;0.90;;;;;;;-0.07;63.48;99439.75;105133;1271;75484;-22
2022/01/02 09:07:30;;;;;;;1.10;0.80;;;;;;;-0.32;63.18;99439.67;105170;1274;73026;-22
2022/01/02 09:09:58;;;;;;;0.80;0.80;;;;;;;-0.48;64.40;99440.17;105068;1274;74818;-22
2022/01/02 09:12:46;;;;;;;1.70;0.60;;;;;;;-0.29;64.33;99444.20;105035;1274;62404;-23
2022/01/02 09:15:15;;;;;;;1.60;1.10;;;;;;;-0.42;64.74;99445.80;104842;1274;61870;-22
2022/01/02 09:17:45;;;;;;;1.20;0.80;;;;;;;0.09;63.59;99438.95;105010;1274;74730;-24
2022/01/02 09:20:14;;;;;;;0.80;0.70;;;;;;;0.13;62.88;99443.41;104953;1274;75946;-24
2022/01/02 09:22:44;;;;;;;1.60;0.80;;;;;;;0.24;62.64;99434.52;104819;1271;72830;-22
2022/01/02 09:25:12;;;;;;;2.00;0.90;;;;;;;0.40;62.30;99426.65;104808;1274;61183;-24
2022/01/02 09:27:41;;;;;;;1.20;1.00;;;;;;;0.72;60.17;99420.45;104829;1273;61100;-22
2022/01/02 09:30:10;;;;;;;1.10;0.80;;;;;;;0.95;59.66;99417.05;104824;1272;72533;-24
2022/01/02 09:32:40;;;;;;;0.90;0.90;;;;;;;1.09;60.39;99415.89;104672;1274;75192;-24
2022/01/02 09:35:09;;;;;;;1.20;0.90;;;;;;;1.21;58.77;99407.42;104835;1271;74626;-22
2022/01/02 09:37:38;;;;;;;1.10;0.80;;;;;;;1.00;59.45;99403.38;104885;1271;61154;-23
2022/01/02 09:40:07;;;;;;;1.70;1.10;;;;;;;0.58;61.51;99395.29;105072;1271;61129;-22
2022/01/02 09:42:37;;;;;;;0.90;0.50;;;;;;;0.97;61.32;99392.54;104727;1274;74563;-22
2022/01/02 09:45:06;;;;;;;1.50;0.90;;;;;;;0.54;61.87;99395.42;104798;1275;74746;-22
2022/01/02 09:47:34;;;;;;;0.80;0.70;;;;;;;0.36;62.30;99395.17;104925;1274;72992;-22
2022/01/02 09:50:07;;;;;;;1.00;0.80;;;;;;;0.92;61.18;99390.34;105151;1271;61157;-22
2022/01/02 09:52:35;;;;;;;1.30;0.90;;;;;;;1.04;59.96;99384.77;104883;1274;62072;-22
2022/01/02 09:55:05;;;;;;;1.00;0.90;;;;;;;0.88;59.86;99393.56;104809;1271;75299;-22
2022/01/02 09:57:33;;;;;;;1.60;1.20;;;;;;;0.40;61.56;99402.56;104645;1272;74968;-22
2022/01/02 10:00:02;;;;;;;2.00;0.60;;;;;;;0.30;61.59;99403.41;104826;1271;74423;-22
2022/01/02 10:03:05;;;;;;;1.10;0.80;;;;;;;0.27;62.17;99395.15;104719;1274;60962;-23
2022/01/02 10:05:50;;;;;;;2.10;1.00;;;;;;;0.84;60.39;99390.45;104866;1272;61240;-22
2022/01/02 10:08:23;;;;;;;1.50;1.00;;;;;;;1.15;60.24;99377.87;104763;1274;74698;-23
2022/01/02 10:11:15;;;;;;;0.70;0.60;;;;;;;1.21;60.28;99369.80;104892;1271;75003;-23
2022/01/02 10:14:01;;;;;;;1.60;0.80;;;;;;;1.43;59.37;99355.27;104847;1271;73421;-26
2022/01/02 10:16:40;;;;;;;1.50;0.60;;;;;;;1.63;59.20;99347.48;104703;1274;61163;-24
2022/01/02 10:19:26;;;;;;;1.00;0.80;;;;;;;1.88;57.99;99342.20;104637;1274;61006;-23
2022/01/02 10:22:00;;;;;;;2.30;1.00;;;;;;;1.97;57.41;99354.17;104700;1274;74232;-23
2022/01/02 10:24:36;;;;;;;1.20;0.90;;;;;;;2.00;57.00;99367.58;104610;1271;75856;-24
2022/01/02 10:27:19;;;;;;;1.00;0.80;;;;;;;2.08;56.39;99367.23;104957;1274;74512;-25
2022/01/02 10:29:56;;;;;;;1.30;1.00;;;;;;;2.21;57.33;99371.52;104743;1272;61067;-24
2022/01/02 10:32:39;;;;;;;0.40;0.40;;;;;;;2.34;56.39;99371.13;104678;1272;61106;-26
2022/01/02 10:35:14;;;;;;;2.00;1.00;;;;;;;2.14;55.83;99360.17;104937;1274;75578;-24
2022/01/02 10:37:48;;;;;;;1.70;1.20;;;;;;;2.26;55.16;99348.85;104728;1272;76087;-22
2022/01/02 10:40:26;;;;;;;1.10;0.80;;;;;;;2.44;55.55;99347.75;104619;1274;73422;-24
2022/01/02 10:42:55;;;;;;;1.10;0.80;;;;;;;2.64;55.58;99344.34;104806;1271;61160;-24
2022/01/02 10:45:54;;;;;;;1.30;0.70;;;;;;;2.69;55.21;99328.65;104620;1274;61888;-23
2022/01/02 10:48:29;;;;;;;0.70;0.60;;;;;;;2.43;55.39;99328.10;104892;1274;74372;-23
2022/01/02 10:50:59;;;;;;;0.90;0.70;;;;;;;2.06;56.18;99329.16;104906;1274;75729;-25
2022/01/02 10:53:28;;;;;;;1.80;0.60;;;;;;;2.03;56.21;99326.33;104840;1274;74464;-23
2022/01/02 10:55:56;;;;;;;0.60;0.60;;;;;;;1.91;56.64;99321.87;104829;1274;61175;-23
2022/01/02 10:58:26;;;;;;;1.60;0.90;;;;;;;1.97;56.85;99319.23;104735;1274;61773;-24
2022/01/02 11:01:01;;;;;;;2.40;0.70;;;;;;;2.03;56.41;99323.61;104655;1274;74307;-23
2022/01/02 11:03:31;;;;;;;0.60;0.50;;;;;;;2.16;56.14;99314.68;104853;1274;74765;-23
2022/01/02 11:06:05;;;;;;;1.30;0.80;;;;;;;2.19;55.78;99308.20;104944;1274;73704;-24
2022/01/02 11:08:40;;;;;;;0.80;0.70;;;;;;;1.99;57.37;99300.48;104929;1274;61019;-23
2022/01/02 11:11:08;;;;;;;1.00;0.50;;;;;;;2.23;55.86;99297.57;104754;1274;61805;-24
2022/01/02 11:13:37;;;;;;;2.20;0.90;;;;;;;2.35;54.94;99284.71;105163;1271;74362;-24
2022/01/02 11:16:05;;;;;;;1.20;0.70;;;;;;;2.39;55.14;99275.30;104811;1274;74985;-23
2022/01/02 11:18:34;;;;;;;0.80;0.70;;;;;;;2.51;55.54;99264.67;104655;1274;74377;-22
2022/01/02 11:21:04;;;;;;;1.20;0.60;;;;;;;2.58;55.07;99253.03;104866;1275;61234;-22
2022/01/02 11:23:44;;;;;;;0.60;0.50;;;;;;;2.64;55.54;99246.09;104620;1274;61061;-22
2022/01/02 11:26:53;;;;;;;0.30;0.30;;;;;;;2.48;55.68;99243.05;104687;1274;74544;-23
2022/01/02 11:29:29;;;;;;;0.60;0.50;;;;;;;2.39;55.74;99237.29;104478;1281;75028;-22
2022/01/02 11:31:57;;;;;;;0.70;0.50;;;;;;;2.36;55.59;99243.40;104304;1281;72121;-22
2022/01/02 11:34:32;;;;;;;0.50;0.50;;;;;;;2.30;55.68;99243.13;104189;1279;61293;-22
2022/01/02 11:37:12;;;;;;;1.20;0.70;;;;;;;2.16;56.20;99251.62;103938;1282;61152;-22
2022/01/02 11:40:00;;;;;;;1.00;0.50;;;;;;;1.78;56.69;99248.10;104385;1281;75912;-22
2022/01/02 11:42:42;;;;;;;1.80;0.50;;;;;;;1.48;57.10;99239.40;104444;1281;74922;-22
2022/01/02 11:45:31;;;;;;;0.80;0.60;;;;;;;1.46;58.23;99219.64;104448;1279;73426;-22
2022/01/02 11:48:01;;;;;;;0.90;0.50;;;;;;;1.76;58.34;99207.77;104192;1279;61493;-22
2022/01/02 11:50:30;;;;;;;0.80;0.50;;;;;;;1.87;58.54;99192.92;104243;1280;61845;-22
2022/01/02 11:53:17;;;;;;;1.80;0.80;;;;;;;1.77;58.68;99182.77;104274;1280;75564;-22
2022/01/02 11:55:49;;;;;;;2.20;0.90;;;;;;;1.39;58.86;99186.55;104509;1281;74599;-24
2022/01/02 11:58:44;;;;;;;0.70;0.50;;;;;;;0.99;59.11;99202.88;104306;1281;73506;-23
2022/01/02 12:01:45;;;;;;;2.50;0.40;;;;;;;0.78;59.72;99193.44;104418;1280;61835;-24
2022/01/02 12:04:13;;;;;;;1.20;0.80;;;;;;;0.58;60.68;99186.67;104624;1274;61133;-24